sensor_id;sensor_type;location;lat;lon;timestamp;P1;durP1;ratioP1;P2;durP2;ratioP2
63714;SDS011;49858;48.956;9.076;2022-12-20T00:01:59;34.90;;;16.42;;
63714;SDS011;49858;48.956;9.076;2022-12-20T00:04:28;31.83;;;15.43;;
63714;SDS011;49858;48.956;9.076;2022-12-20T00:06:55;30.20;;;15.02;;
63714;SDS011;49858;48.956;9.076;2022-12-20T00:09:23;27.20;;;13.98;;
63714;SDS011;49858;48.956;9.076;2022-12-20T00:11:51;31.17;;;16.30;;
63714;SDS011;49858;48.956;9.076;2022-12-20T00:14:19;30.98;;;15.73;;
63714;SDS011;49858;48.956;9.076;2022-12-20T00:16:47;31.75;;;14.80;;
63714;SDS011;49858;48.956;9.076;2022-12-20T00:19:15;31.88;;;13.20;;
63714;SDS011;49858;48.956;9.076;2022-12-20T00:21:44;28.50;;;14.27;;
63714;SDS011;49858;48.956;9.076;2022-12-20T00:24:11;28.83;;;14.57;;
63714;SDS011;49858;48.956;9.076;2022-12-20T00:26:39;33.10;;;15.75;;
63714;SDS011;49858;48.956;9.076;2022-12-20T00:29:07;28.20;;;14.75;;
63714;SDS011;49858;48.956;9.076;2022-12-20T00:31:35;25.92;;;14.35;;
63714;SDS011;49858;48.956;9.076;2022-12-20T00:34:03;26.25;;;12.60;;
63714;SDS011;49858;48.956;9.076;2022-12-20T00:36:31;30.23;;;14.10;;
63714;SDS011;49858;48.956;9.076;2022-12-20T00:39:00;25.30;;;13.43;;
63714;SDS011;49858;48.956;9.076;2022-12-20T00:41:29;26.58;;;14.73;;
63714;SDS011;49858;48.956;9.076;2022-12-20T00:43:59;29.45;;;14.85;;
63714;SDS011;49858;48.956;9.076;2022-12-20T00:46:27;29.98;;;15.07;;
63714;SDS011;49858;48.956;9.076;2022-12-20T00:48:57;28.08;;;14.57;;
63714;SDS011;49858;48.956;9.076;2022-12-20T00:51:26;27.48;;;14.02;;
63714;SDS011;49858;48.956;9.076;2022-12-20T00:53:57;25.67;;;13.32;;
63714;SDS011;49858;48.956;9.076;2022-12-20T00:56:26;25.60;;;13.05;;
63714;SDS011;49858;48.956;9.076;2022-12-20T00:58:56;30.23;;;15.13;;
63714;SDS011;49858;48.956;9.076;2022-12-20T01:01:25;35.28;;;13.10;;
63714;SDS011;49858;48.956;9.076;2022-12-20T01:03:55;29.65;;;14.90;;
63714;SDS011;49858;48.956;9.076;2022-12-20T01:06:24;29.30;;;13.52;;
63714;SDS011;49858;48.956;9.076;2022-12-20T01:08:52;24.95;;;14.00;;
63714;SDS011;49858;48.956;9.076;2022-12-20T01:11:21;26.15;;;13.18;;
63714;SDS011;49858;48.956;9.076;2022-12-20T01:13:52;28.23;;;13.70;;
63714;SDS011;49858;48.956;9.076;2022-12-20T01:16:23;21.73;;;12.70;;
63714;SDS011;49858;48.956;9.076;2022-12-20T01:18:52;24.85;;;12.98;;
63714;SDS011;49858;48.956;9.076;2022-12-20T01:21:21;30.70;;;14.73;;
63714;SDS011;49858;48.956;9.076;2022-12-20T01:23:50;28.30;;;14.15;;
63714;SDS011;49858;48.956;9.076;2022-12-20T01:26:19;27.75;;;12.77;;
63714;SDS011;49858;48.956;9.076;2022-12-20T01:28:50;26.98;;;13.23;;
63714;SDS011;49858;48.956;9.076;2022-12-20T01:31:22;21.45;;;12.80;;
63714;SDS011;49858;48.956;9.076;2022-12-20T01:33:50;27.05;;;13.40;;
63714;SDS011;49858;48.956;9.076;2022-12-20T01:36:19;25.08;;;12.57;;
63714;SDS011;49858;48.956;9.076;2022-12-20T01:38:50;28.80;;;13.77;;
63714;SDS011;49858;48.956;9.076;2022-12-20T01:41:21;26.73;;;13.20;;
63714;SDS011;49858;48.956;9.076;2022-12-20T01:43:50;25.45;;;12.95;;
63714;SDS011;49858;48.956;9.076;2022-12-20T01:46:21;27.20;;;14.18;;
63714;SDS011;49858;48.956;9.076;2022-12-20T01:48:51;27.45;;;13.98;;
63714;SDS011;49858;48.956;9.076;2022-12-20T01:51:21;28.35;;;14.55;;
63714;SDS011;49858;48.956;9.076;2022-12-20T01:53:51;29.40;;;15.50;;
63714;SDS011;49858;48.956;9.076;2022-12-20T01:56:24;30.83;;;14.75;;
63714;SDS011;49858;48.956;9.076;2022-12-20T01:58:53;25.67;;;13.70;;
63714;SDS011;49858;48.956;9.076;2022-12-20T02:01:23;29.25;;;14.05;;
63714;SDS011;49858;48.956;9.076;2022-12-20T02:03:53;25.25;;;13.63;;
63714;SDS011;49858;48.956;9.076;2022-12-20T02:06:22;26.70;;;13.45;;
63714;SDS011;49858;48.956;9.076;2022-12-20T02:08:51;26.27;;;13.23;;
63714;SDS011;49858;48.956;9.076;2022-12-20T02:11:26;25.67;;;13.15;;
63714;SDS011;49858;48.956;9.076;2022-12-20T02:14:07;26.85;;;14.60;;
63714;SDS011;49858;48.956;9.076;2022-12-20T02:16:42;22.05;;;12.10;;
63714;SDS011;49858;48.956;9.076;2022-12-20T02:19:23;25.13;;;12.90;;
63714;SDS011;49858;48.956;9.076;2022-12-20T02:22:09;30.35;;;14.32;;
63714;SDS011;49858;48.956;9.076;2022-12-20T02:24:55;26.75;;;12.95;;
63714;SDS011;49858;48.956;9.076;2022-12-20T02:27:51;25.85;;;12.77;;
63714;SDS011;49858;48.956;9.076;2022-12-20T02:30:28;25.05;;;12.50;;
63714;SDS011;49858;48.956;9.076;2022-12-20T02:35:30;19.65;;;11.90;;
63714;SDS011;49858;48.956;9.076;2022-12-20T02:38:01;29.58;;;13.73;;
63714;SDS011;49858;48.956;9.076;2022-12-20T02:40:31;25.92;;;12.18;;
63714;SDS011;49858;48.956;9.076;2022-12-20T02:43:06;23.65;;;12.13;;
63714;SDS011;49858;48.956;9.076;2022-12-20T02:45:59;25.77;;;13.85;;
63714;SDS011;49858;48.956;9.076;2022-12-20T02:48:28;26.90;;;14.68;;
63714;SDS011;49858;48.956;9.076;2022-12-20T02:50:59;27.13;;;15.65;;
63714;SDS011;49858;48.956;9.076;2022-12-20T02:53:31;26.42;;;14.15;;
63714;SDS011;49858;48.956;9.076;2022-12-20T02:56:00;26.60;;;13.15;;
63714;SDS011;49858;48.956;9.076;2022-12-20T02:58:37;22.48;;;13.00;;
63714;SDS011;49858;48.956;9.076;2022-12-20T03:01:12;26.90;;;16.13;;
63714;SDS011;49858;48.956;9.076;2022-12-20T03:03:43;29.80;;;14.13;;
63714;SDS011;49858;48.956;9.076;2022-12-20T03:06:12;22.80;;;13.23;;
63714;SDS011;49858;48.956;9.076;2022-12-20T03:08:40;30.63;;;14.10;;
63714;SDS011;49858;48.956;9.076;2022-12-20T03:11:08;24.23;;;13.23;;
63714;SDS011;49858;48.956;9.076;2022-12-20T03:13:36;25.65;;;13.80;;
63714;SDS011;49858;48.956;9.076;2022-12-20T03:16:07;27.33;;;13.30;;
63714;SDS011;49858;48.956;9.076;2022-12-20T03:18:37;26.73;;;14.48;;
63714;SDS011;49858;48.956;9.076;2022-12-20T03:21:06;23.42;;;12.35;;
63714;SDS011;49858;48.956;9.076;2022-12-20T03:23:34;27.75;;;13.75;;
63714;SDS011;49858;48.956;9.076;2022-12-20T03:26:02;26.98;;;12.75;;
63714;SDS011;49858;48.956;9.076;2022-12-20T03:28:34;30.67;;;15.23;;
63714;SDS011;49858;48.956;9.076;2022-12-20T03:31:02;27.08;;;13.07;;
63714;SDS011;49858;48.956;9.076;2022-12-20T03:33:38;24.23;;;13.10;;
63714;SDS011;49858;48.956;9.076;2022-12-20T03:36:07;25.00;;;13.20;;
63714;SDS011;49858;48.956;9.076;2022-12-20T03:38:35;28.13;;;14.23;;
63714;SDS011;49858;48.956;9.076;2022-12-20T03:41:05;29.35;;;15.60;;
63714;SDS011;49858;48.956;9.076;2022-12-20T03:43:33;24.90;;;13.60;;
63714;SDS011;49858;48.956;9.076;2022-12-20T03:46:01;26.10;;;14.80;;
63714;SDS011;49858;48.956;9.076;2022-12-20T03:48:33;29.77;;;15.25;;
63714;SDS011;49858;48.956;9.076;2022-12-20T03:51:03;25.83;;;13.30;;
63714;SDS011;49858;48.956;9.076;2022-12-20T03:53:31;25.65;;;13.93;;
63714;SDS011;49858;48.956;9.076;2022-12-20T03:56:00;27.55;;;14.02;;
63714;SDS011;49858;48.956;9.076;2022-12-20T03:58:28;32.38;;;14.02;;
63714;SDS011;49858;48.956;9.076;2022-12-20T04:00:56;26.15;;;13.15;;
63714;SDS011;49858;48.956;9.076;2022-12-20T04:03:44;23.23;;;14.18;;
63714;SDS011;49858;48.956;9.076;2022-12-20T04:06:13;30.98;;;15.93;;
63714;SDS011;49858;48.956;9.076;2022-12-20T04:08:42;30.17;;;15.18;;
63714;SDS011;49858;48.956;9.076;2022-12-20T04:11:16;26.58;;;14.38;;
63714;SDS011;49858;48.956;9.076;2022-12-20T04:14:00;29.88;;;15.00;;
63714;SDS011;49858;48.956;9.076;2022-12-20T04:16:28;24.80;;;14.38;;
63714;SDS011;49858;48.956;9.076;2022-12-20T04:18:58;30.15;;;14.40;;
63714;SDS011;49858;48.956;9.076;2022-12-20T04:21:32;26.70;;;14.65;;
63714;SDS011;49858;48.956;9.076;2022-12-20T04:24:02;25.02;;;13.13;;
63714;SDS011;49858;48.956;9.076;2022-12-20T04:26:40;32.65;;;15.95;;
63714;SDS011;49858;48.956;9.076;2022-12-20T04:29:09;33.08;;;14.20;;
63714;SDS011;49858;48.956;9.076;2022-12-20T04:31:39;26.35;;;14.95;;
63714;SDS011;49858;48.956;9.076;2022-12-20T04:34:08;27.52;;;15.10;;
63714;SDS011;49858;48.956;9.076;2022-12-20T04:36:38;31.05;;;17.27;;
63714;SDS011;49858;48.956;9.076;2022-12-20T04:39:12;29.98;;;17.27;;
63714;SDS011;49858;48.956;9.076;2022-12-20T04:41:57;29.98;;;13.73;;
63714;SDS011;49858;48.956;9.076;2022-12-20T04:44:26;30.17;;;14.45;;
63714;SDS011;49858;48.956;9.076;2022-12-20T04:46:54;24.73;;;14.55;;
63714;SDS011;49858;48.956;9.076;2022-12-20T04:49:23;27.58;;;15.10;;
63714;SDS011;49858;48.956;9.076;2022-12-20T04:51:52;28.27;;;15.88;;
63714;SDS011;49858;48.956;9.076;2022-12-20T04:54:19;24.55;;;14.02;;
63714;SDS011;49858;48.956;9.076;2022-12-20T04:56:57;27.80;;;13.65;;
63714;SDS011;49858;48.956;9.076;2022-12-20T04:59:25;23.63;;;13.25;;
63714;SDS011;49858;48.956;9.076;2022-12-20T05:01:53;23.98;;;12.18;;
63714;SDS011;49858;48.956;9.076;2022-12-20T05:04:40;25.23;;;12.73;;
63714;SDS011;49858;48.956;9.076;2022-12-20T05:07:10;22.67;;;12.80;;
63714;SDS011;49858;48.956;9.076;2022-12-20T05:09:41;26.85;;;14.20;;
63714;SDS011;49858;48.956;9.076;2022-12-20T05:12:09;25.70;;;12.88;;
63714;SDS011;49858;48.956;9.076;2022-12-20T05:14:37;24.52;;;13.63;;
63714;SDS011;49858;48.956;9.076;2022-12-20T05:17:05;22.95;;;12.95;;
63714;SDS011;49858;48.956;9.076;2022-12-20T05:19:33;22.73;;;11.82;;
63714;SDS011;49858;48.956;9.076;2022-12-20T05:22:01;25.33;;;13.02;;
63714;SDS011;49858;48.956;9.076;2022-12-20T05:25:03;23.48;;;12.57;;
63714;SDS011;49858;48.956;9.076;2022-12-20T05:27:51;25.23;;;13.75;;
63714;SDS011;49858;48.956;9.076;2022-12-20T05:30:21;28.23;;;12.75;;
63714;SDS011;49858;48.956;9.076;2022-12-20T05:32:50;21.58;;;11.82;;
63714;SDS011;49858;48.956;9.076;2022-12-20T05:35:18;29.00;;;13.93;;
63714;SDS011;49858;48.956;9.076;2022-12-20T05:37:51;23.23;;;12.93;;
63714;SDS011;49858;48.956;9.076;2022-12-20T05:40:21;24.52;;;13.32;;
63714;SDS011;49858;48.956;9.076;2022-12-20T05:42:49;22.73;;;13.30;;
63714;SDS011;49858;48.956;9.076;2022-12-20T05:45:18;24.05;;;12.90;;
63714;SDS011;49858;48.956;9.076;2022-12-20T05:47:52;26.85;;;14.25;;
63714;SDS011;49858;48.956;9.076;2022-12-20T05:50:20;25.25;;;12.63;;
63714;SDS011;49858;48.956;9.076;2022-12-20T05:53:19;25.05;;;13.65;;
63714;SDS011;49858;48.956;9.076;2022-12-20T05:55:52;23.45;;;13.50;;
63714;SDS011;49858;48.956;9.076;2022-12-20T05:58:25;23.42;;;11.85;;
63714;SDS011;49858;48.956;9.076;2022-12-20T06:00:58;23.38;;;12.77;;
63714;SDS011;49858;48.956;9.076;2022-12-20T06:03:28;30.52;;;14.50;;
63714;SDS011;49858;48.956;9.076;2022-12-20T06:05:57;25.35;;;12.68;;
63714;SDS011;49858;48.956;9.076;2022-12-20T06:08:28;19.85;;;11.88;;
63714;SDS011;49858;48.956;9.076;2022-12-20T06:11:00;25.50;;;12.75;;
63714;SDS011;49858;48.956;9.076;2022-12-20T06:13:35;23.98;;;12.88;;
63714;SDS011;49858;48.956;9.076;2022-12-20T06:16:03;23.40;;;12.38;;
63714;SDS011;49858;48.956;9.076;2022-12-20T06:18:31;26.35;;;12.90;;
63714;SDS011;49858;48.956;9.076;2022-12-20T06:21:01;20.55;;;11.45;;
63714;SDS011;49858;48.956;9.076;2022-12-20T06:23:29;23.42;;;12.88;;
63714;SDS011;49858;48.956;9.076;2022-12-20T06:26:05;24.67;;;12.32;;
63714;SDS011;49858;48.956;9.076;2022-12-20T06:28:42;27.42;;;13.45;;
63714;SDS011;49858;48.956;9.076;2022-12-20T06:31:12;24.52;;;12.05;;
63714;SDS011;49858;48.956;9.076;2022-12-20T06:33:43;24.80;;;12.45;;
63714;SDS011;49858;48.956;9.076;2022-12-20T06:36:14;24.08;;;13.73;;
63714;SDS011;49858;48.956;9.076;2022-12-20T06:38:42;30.70;;;14.00;;
63714;SDS011;49858;48.956;9.076;2022-12-20T06:41:11;21.45;;;12.43;;
63714;SDS011;49858;48.956;9.076;2022-12-20T06:43:39;28.08;;;13.38;;
63714;SDS011;49858;48.956;9.076;2022-12-20T06:46:07;25.63;;;14.02;;
63714;SDS011;49858;48.956;9.076;2022-12-20T06:48:35;28.63;;;12.57;;
63714;SDS011;49858;48.956;9.076;2022-12-20T06:51:05;26.35;;;14.10;;
63714;SDS011;49858;48.956;9.076;2022-12-20T06:53:33;22.77;;;12.32;;
63714;SDS011;49858;48.956;9.076;2022-12-20T06:56:01;22.00;;;12.05;;
63714;SDS011;49858;48.956;9.076;2022-12-20T06:58:31;22.77;;;11.80;;
63714;SDS011;49858;48.956;9.076;2022-12-20T07:00:59;24.27;;;12.95;;
63714;SDS011;49858;48.956;9.076;2022-12-20T07:03:27;26.70;;;12.68;;
63714;SDS011;49858;48.956;9.076;2022-12-20T07:05:55;27.50;;;12.30;;
63714;SDS011;49858;48.956;9.076;2022-12-20T07:08:23;27.90;;;15.80;;
63714;SDS011;49858;48.956;9.076;2022-12-20T07:10:51;31.45;;;14.50;;
63714;SDS011;49858;48.956;9.076;2022-12-20T07:13:19;30.42;;;15.18;;
63714;SDS011;49858;48.956;9.076;2022-12-20T07:15:57;32.05;;;14.75;;
63714;SDS011;49858;48.956;9.076;2022-12-20T07:18:25;25.73;;;13.05;;
63714;SDS011;49858;48.956;9.076;2022-12-20T07:20:53;22.98;;;12.23;;
63714;SDS011;49858;48.956;9.076;2022-12-20T07:23:21;28.15;;;13.57;;
63714;SDS011;49858;48.956;9.076;2022-12-20T07:25:52;31.60;;;14.18;;
63714;SDS011;49858;48.956;9.076;2022-12-20T07:28:21;26.63;;;13.90;;
63714;SDS011;49858;48.956;9.076;2022-12-20T07:30:51;26.30;;;13.75;;
63714;SDS011;49858;48.956;9.076;2022-12-20T07:33:20;26.92;;;15.15;;
63714;SDS011;49858;48.956;9.076;2022-12-20T07:35:48;23.30;;;13.15;;
63714;SDS011;49858;48.956;9.076;2022-12-20T07:38:20;21.77;;;13.00;;
63714;SDS011;49858;48.956;9.076;2022-12-20T07:40:48;27.80;;;13.65;;
63714;SDS011;49858;48.956;9.076;2022-12-20T07:43:15;26.33;;;13.65;;
63714;SDS011;49858;48.956;9.076;2022-12-20T07:45:43;22.92;;;11.70;;
63714;SDS011;49858;48.956;9.076;2022-12-20T07:48:13;27.75;;;13.95;;
63714;SDS011;49858;48.956;9.076;2022-12-20T07:50:48;20.20;;;12.18;;
63714;SDS011;49858;48.956;9.076;2022-12-20T07:53:18;25.02;;;12.95;;
63714;SDS011;49858;48.956;9.076;2022-12-20T07:55:46;25.75;;;12.88;;
63714;SDS011;49858;48.956;9.076;2022-12-20T07:58:15;22.27;;;12.50;;
63714;SDS011;49858;48.956;9.076;2022-12-20T08:00:45;22.05;;;12.18;;
63714;SDS011;49858;48.956;9.076;2022-12-20T08:03:14;25.67;;;12.70;;
63714;SDS011;49858;48.956;9.076;2022-12-20T08:05:46;19.30;;;11.05;;
63714;SDS011;49858;48.956;9.076;2022-12-20T08:08:19;20.75;;;13.02;;
63714;SDS011;49858;48.956;9.076;2022-12-20T08:10:48;22.77;;;11.35;;
63714;SDS011;49858;48.956;9.076;2022-12-20T08:13:17;22.27;;;11.00;;
63714;SDS011;49858;48.956;9.076;2022-12-20T08:15:45;20.08;;;10.75;;
63714;SDS011;49858;48.956;9.076;2022-12-20T08:18:13;23.15;;;11.70;;
63714;SDS011;49858;48.956;9.076;2022-12-20T08:20:41;20.67;;;10.38;;
63714;SDS011;49858;48.956;9.076;2022-12-20T08:23:10;28.08;;;14.20;;
63714;SDS011;49858;48.956;9.076;2022-12-20T08:25:38;26.23;;;12.13;;
63714;SDS011;49858;48.956;9.076;2022-12-20T08:28:07;21.30;;;12.60;;
63714;SDS011;49858;48.956;9.076;2022-12-20T08:30:35;20.35;;;11.48;;
63714;SDS011;49858;48.956;9.076;2022-12-20T08:33:03;22.60;;;11.98;;
63714;SDS011;49858;48.956;9.076;2022-12-20T08:35:31;23.95;;;11.88;;
63714;SDS011;49858;48.956;9.076;2022-12-20T08:37:59;20.60;;;12.25;;
63714;SDS011;49858;48.956;9.076;2022-12-20T08:40:28;18.98;;;11.82;;
63714;SDS011;49858;48.956;9.076;2022-12-20T08:42:57;22.13;;;10.57;;
63714;SDS011;49858;48.956;9.076;2022-12-20T08:45:31;21.08;;;11.45;;
63714;SDS011;49858;48.956;9.076;2022-12-20T08:47:59;20.13;;;11.52;;
63714;SDS011;49858;48.956;9.076;2022-12-20T08:50:27;21.83;;;10.75;;
63714;SDS011;49858;48.956;9.076;2022-12-20T08:52:55;21.75;;;11.45;;
63714;SDS011;49858;48.956;9.076;2022-12-20T08:55:23;23.77;;;12.73;;
63714;SDS011;49858;48.956;9.076;2022-12-20T08:57:56;19.60;;;10.98;;
63714;SDS011;49858;48.956;9.076;2022-12-20T09:00:24;22.45;;;10.65;;
63714;SDS011;49858;48.956;9.076;2022-12-20T09:02:52;18.98;;;11.10;;
63714;SDS011;49858;48.956;9.076;2022-12-20T09:05:21;21.67;;;10.95;;
63714;SDS011;49858;48.956;9.076;2022-12-20T09:07:49;20.77;;;10.55;;
63714;SDS011;49858;48.956;9.076;2022-12-20T09:10:17;18.60;;;11.63;;
63714;SDS011;49858;48.956;9.076;2022-12-20T09:12:44;21.85;;;11.98;;
63714;SDS011;49858;48.956;9.076;2022-12-20T09:15:14;20.27;;;11.95;;
63714;SDS011;49858;48.956;9.076;2022-12-20T09:17:42;20.73;;;10.80;;
63714;SDS011;49858;48.956;9.076;2022-12-20T09:20:09;22.25;;;10.38;;
63714;SDS011;49858;48.956;9.076;2022-12-20T09:22:37;20.58;;;11.05;;
63714;SDS011;49858;48.956;9.076;2022-12-20T09:25:06;22.98;;;10.80;;
63714;SDS011;49858;48.956;9.076;2022-12-20T09:27:34;21.45;;;10.45;;
63714;SDS011;49858;48.956;9.076;2022-12-20T09:30:03;18.83;;;11.00;;
63714;SDS011;49858;48.956;9.076;2022-12-20T09:32:33;20.50;;;10.95;;
63714;SDS011;49858;48.956;9.076;2022-12-20T09:35:01;25.55;;;11.30;;
63714;SDS011;49858;48.956;9.076;2022-12-20T09:37:28;19.10;;;10.45;;
63714;SDS011;49858;48.956;9.076;2022-12-20T09:39:57;24.33;;;11.07;;
63714;SDS011;49858;48.956;9.076;2022-12-20T09:42:26;22.73;;;10.82;;
63714;SDS011;49858;48.956;9.076;2022-12-20T09:44:56;18.52;;;10.30;;
63714;SDS011;49858;48.956;9.076;2022-12-20T09:47:29;19.42;;;10.15;;
63714;SDS011;49858;48.956;9.076;2022-12-20T09:50:02;20.65;;;9.88;;
63714;SDS011;49858;48.956;9.076;2022-12-20T09:52:35;17.50;;;10.63;;
63714;SDS011;49858;48.956;9.076;2022-12-20T09:55:16;21.70;;;12.35;;
63714;SDS011;49858;48.956;9.076;2022-12-20T09:57:57;22.02;;;13.52;;
63714;SDS011;49858;48.956;9.076;2022-12-20T10:00:34;22.67;;;12.82;;
63714;SDS011;49858;48.956;9.076;2022-12-20T10:03:07;17.38;;;10.70;;
63714;SDS011;49858;48.956;9.076;2022-12-20T10:05:44;19.15;;;10.85;;
63714;SDS011;49858;48.956;9.076;2022-12-20T10:08:23;19.38;;;9.93;;
63714;SDS011;49858;48.956;9.076;2022-12-20T10:11:04;17.35;;;9.77;;
63714;SDS011;49858;48.956;9.076;2022-12-20T10:13:44;16.90;;;9.35;;
63714;SDS011;49858;48.956;9.076;2022-12-20T10:16:25;19.15;;;9.35;;
63714;SDS011;49858;48.956;9.076;2022-12-20T10:19:07;19.40;;;9.77;;
63714;SDS011;49858;48.956;9.076;2022-12-20T10:21:48;19.50;;;9.77;;
63714;SDS011;49858;48.956;9.076;2022-12-20T10:24:26;20.80;;;9.73;;
63714;SDS011;49858;48.956;9.076;2022-12-20T10:26:56;13.63;;;9.05;;
63714;SDS011;49858;48.956;9.076;2022-12-20T10:29:28;15.30;;;8.63;;
63714;SDS011;49858;48.956;9.076;2022-12-20T10:31:58;19.00;;;9.10;;
63714;SDS011;49858;48.956;9.076;2022-12-20T10:34:27;15.25;;;8.27;;
63714;SDS011;49858;48.956;9.076;2022-12-20T10:37:13;13.50;;;9.55;;
63714;SDS011;49858;48.956;9.076;2022-12-20T10:39:42;16.83;;;9.00;;
63714;SDS011;49858;48.956;9.076;2022-12-20T10:45:04;14.48;;;8.80;;
63714;SDS011;49858;48.956;9.076;2022-12-20T10:48:02;13.32;;;7.70;;
63714;SDS011;49858;48.956;9.076;2022-12-20T10:50:31;16.70;;;8.98;;
63714;SDS011;49858;48.956;9.076;2022-12-20T10:53:20;13.13;;;8.02;;
63714;SDS011;49858;48.956;9.076;2022-12-20T10:55:50;15.55;;;8.70;;
63714;SDS011;49858;48.956;9.076;2022-12-20T10:58:21;12.88;;;8.23;;
63714;SDS011;49858;48.956;9.076;2022-12-20T11:01:05;16.75;;;9.80;;
63714;SDS011;49858;48.956;9.076;2022-12-20T11:03:50;19.45;;;9.80;;
63714;SDS011;49858;48.956;9.076;2022-12-20T11:06:25;20.27;;;9.98;;
63714;SDS011;49858;48.956;9.076;2022-12-20T11:11:57;22.90;;;10.77;;
63714;SDS011;49858;48.956;9.076;2022-12-20T11:14:27;20.67;;;10.50;;
63714;SDS011;49858;48.956;9.076;2022-12-20T11:17:05;21.67;;;9.90;;
63714;SDS011;49858;48.956;9.076;2022-12-20T11:19:50;17.67;;;10.27;;
63714;SDS011;49858;48.956;9.076;2022-12-20T11:22:30;18.45;;;9.70;;
63714;SDS011;49858;48.956;9.076;2022-12-20T11:25:15;22.17;;;10.52;;
63714;SDS011;49858;48.956;9.076;2022-12-20T11:28:00;24.20;;;12.20;;
63714;SDS011;49858;48.956;9.076;2022-12-20T11:30:45;18.80;;;9.65;;
63714;SDS011;49858;48.956;9.076;2022-12-20T11:33:28;17.83;;;10.68;;
63714;SDS011;49858;48.956;9.076;2022-12-20T11:36:09;18.58;;;10.95;;
63714;SDS011;49858;48.956;9.076;2022-12-20T11:38:45;23.88;;;11.43;;
63714;SDS011;49858;48.956;9.076;2022-12-20T11:41:18;22.73;;;11.57;;
63714;SDS011;49858;48.956;9.076;2022-12-20T11:44:02;21.98;;;11.32;;
63714;SDS011;49858;48.956;9.076;2022-12-20T11:46:55;19.88;;;10.20;;
63714;SDS011;49858;48.956;9.076;2022-12-20T11:49:49;16.58;;;9.27;;
63714;SDS011;49858;48.956;9.076;2022-12-20T11:52:30;20.27;;;10.45;;
63714;SDS011;49858;48.956;9.076;2022-12-20T11:55:05;17.10;;;10.57;;
63714;SDS011;49858;48.956;9.076;2022-12-20T11:57:44;17.45;;;9.65;;
63714;SDS011;49858;48.956;9.076;2022-12-20T12:00:41;19.08;;;9.93;;
63714;SDS011;49858;48.956;9.076;2022-12-20T12:03:19;18.45;;;9.07;;
63714;SDS011;49858;48.956;9.076;2022-12-20T12:05:53;22.50;;;10.68;;
63714;SDS011;49858;48.956;9.076;2022-12-20T12:08:26;15.38;;;9.52;;
63714;SDS011;49858;48.956;9.076;2022-12-20T12:11:00;18.13;;;9.52;;
63714;SDS011;49858;48.956;9.076;2022-12-20T12:13:34;18.15;;;9.32;;
63714;SDS011;49858;48.956;9.076;2022-12-20T12:16:07;17.83;;;9.48;;
63714;SDS011;49858;48.956;9.076;2022-12-20T12:18:39;21.38;;;10.23;;
63714;SDS011;49858;48.956;9.076;2022-12-20T12:21:08;19.98;;;10.80;;
63714;SDS011;49858;48.956;9.076;2022-12-20T12:23:47;18.58;;;11.25;;
63714;SDS011;49858;48.956;9.076;2022-12-20T12:26:23;18.88;;;11.65;;
63714;SDS011;49858;48.956;9.076;2022-12-20T12:28:54;24.73;;;12.18;;
63714;SDS011;49858;48.956;9.076;2022-12-20T12:31:27;20.48;;;12.00;;
63714;SDS011;49858;48.956;9.076;2022-12-20T12:34:07;21.13;;;11.00;;
63714;SDS011;49858;48.956;9.076;2022-12-20T12:37:02;20.33;;;9.98;;
63714;SDS011;49858;48.956;9.076;2022-12-20T12:39:47;24.73;;;9.27;;
63714;SDS011;49858;48.956;9.076;2022-12-20T12:42:55;14.18;;;8.85;;
63714;SDS011;49858;48.956;9.076;2022-12-20T12:45:36;17.73;;;10.15;;
63714;SDS011;49858;48.956;9.076;2022-12-20T12:50:43;15.88;;;8.02;;
63714;SDS011;49858;48.956;9.076;2022-12-20T12:53:14;18.77;;;9.80;;
63714;SDS011;49858;48.956;9.076;2022-12-20T12:55:46;16.10;;;8.80;;
63714;SDS011;49858;48.956;9.076;2022-12-20T13:01:25;13.27;;;8.30;;
63714;SDS011;49858;48.956;9.076;2022-12-20T13:04:27;17.77;;;8.25;;
63714;SDS011;49858;48.956;9.076;2022-12-20T13:07:02;16.65;;;8.70;;
63714;SDS011;49858;48.956;9.076;2022-12-20T13:09:52;15.95;;;9.55;;
63714;SDS011;49858;48.956;9.076;2022-12-20T13:18:31;13.38;;;8.07;;
63714;SDS011;49858;48.956;9.076;2022-12-20T13:27:01;12.82;;;7.72;;
63714;SDS011;49858;48.956;9.076;2022-12-20T13:29:32;17.33;;;8.43;;
63714;SDS011;49858;48.956;9.076;2022-12-20T13:32:02;15.85;;;8.65;;
63714;SDS011;49858;48.956;9.076;2022-12-20T13:34:55;13.07;;;8.02;;
63714;SDS011;49858;48.956;9.076;2022-12-20T13:37:27;16.60;;;8.27;;
63714;SDS011;49858;48.956;9.076;2022-12-20T13:40:21;17.55;;;9.25;;
63714;SDS011;49858;48.956;9.076;2022-12-20T13:42:56;15.13;;;8.70;;
63714;SDS011;49858;48.956;9.076;2022-12-20T13:45:28;16.08;;;8.75;;
63714;SDS011;49858;48.956;9.076;2022-12-20T13:47:58;15.82;;;9.43;;
63714;SDS011;49858;48.956;9.076;2022-12-20T13:50:38;17.08;;;10.27;;
63714;SDS011;49858;48.956;9.076;2022-12-20T13:53:14;15.25;;;8.82;;
63714;SDS011;49858;48.956;9.076;2022-12-20T13:55:44;12.95;;;7.75;;
63714;SDS011;49858;48.956;9.076;2022-12-20T13:58:15;13.80;;;8.38;;
63714;SDS011;49858;48.956;9.076;2022-12-20T14:00:45;14.73;;;8.35;;
63714;SDS011;49858;48.956;9.076;2022-12-20T14:03:19;13.27;;;8.07;;
63714;SDS011;49858;48.956;9.076;2022-12-20T14:05:52;13.95;;;8.75;;
63714;SDS011;49858;48.956;9.076;2022-12-20T14:08:29;15.98;;;9.38;;
63714;SDS011;49858;48.956;9.076;2022-12-20T14:11:06;16.23;;;9.88;;
63714;SDS011;49858;48.956;9.076;2022-12-20T14:13:36;18.75;;;9.32;;
63714;SDS011;49858;48.956;9.076;2022-12-20T14:16:07;13.57;;;8.85;;
63714;SDS011;49858;48.956;9.076;2022-12-20T14:18:39;17.00;;;8.32;;
63714;SDS011;49858;48.956;9.076;2022-12-20T14:21:08;15.63;;;8.70;;
63714;SDS011;49858;48.956;9.076;2022-12-20T14:23:38;13.90;;;8.38;;
63714;SDS011;49858;48.956;9.076;2022-12-20T14:26:09;14.98;;;8.05;;
63714;SDS011;49858;48.956;9.076;2022-12-20T14:28:39;13.50;;;8.48;;
63714;SDS011;49858;48.956;9.076;2022-12-20T14:31:21;14.05;;;7.90;;
63714;SDS011;49858;48.956;9.076;2022-12-20T14:33:50;13.43;;;8.20;;
63714;SDS011;49858;48.956;9.076;2022-12-20T14:36:28;15.45;;;8.07;;
63714;SDS011;49858;48.956;9.076;2022-12-20T14:38:57;13.10;;;7.90;;
63714;SDS011;49858;48.956;9.076;2022-12-20T14:41:28;15.20;;;7.75;;
63714;SDS011;49858;48.956;9.076;2022-12-20T14:44:00;16.00;;;8.50;;
63714;SDS011;49858;48.956;9.076;2022-12-20T14:46:32;13.82;;;7.55;;
63714;SDS011;49858;48.956;9.076;2022-12-20T14:49:10;12.35;;;7.13;;
63714;SDS011;49858;48.956;9.076;2022-12-20T14:51:46;14.05;;;7.90;;
63714;SDS011;49858;48.956;9.076;2022-12-20T14:54:15;17.35;;;8.05;;
63714;SDS011;49858;48.956;9.076;2022-12-20T14:57:09;16.65;;;8.20;;
63714;SDS011;49858;48.956;9.076;2022-12-20T14:59:38;14.13;;;7.50;;
63714;SDS011;49858;48.956;9.076;2022-12-20T15:04:58;13.95;;;7.40;;
63714;SDS011;49858;48.956;9.076;2022-12-20T15:07:29;14.52;;;8.32;;
63714;SDS011;49858;48.956;9.076;2022-12-20T15:09:58;14.20;;;8.52;;
63714;SDS011;49858;48.956;9.076;2022-12-20T15:12:26;13.70;;;8.50;;
63714;SDS011;49858;48.956;9.076;2022-12-20T15:14:53;15.65;;;8.55;;
63714;SDS011;49858;48.956;9.076;2022-12-20T15:17:31;18.98;;;8.95;;
63714;SDS011;49858;48.956;9.076;2022-12-20T15:19:59;15.43;;;7.95;;
63714;SDS011;49858;48.956;9.076;2022-12-20T15:22:27;13.70;;;7.95;;
63714;SDS011;49858;48.956;9.076;2022-12-20T15:24:55;17.92;;;8.40;;
63714;SDS011;49858;48.956;9.076;2022-12-20T15:27:23;19.73;;;9.30;;